sensor_id;sensor_type;location;lat;lon;timestamp;P1;durP1;ratioP1;P2;durP2;ratioP2
9844;SDS011;4961;50.782;6.080;2022-07-01T00:02:07;2.57;;;1.33;;
9844;SDS011;4961;50.782;6.080;2022-07-01T00:04:43;2.77;;;1.20;;
9844;SDS011;4961;50.782;6.080;2022-07-01T00:07:11;3.73;;;1.20;;
9844;SDS011;4961;50.782;6.080;2022-07-01T00:09:40;1.10;;;0.90;;
9844;SDS011;4961;50.782;6.080;2022-07-01T00:12:09;1.63;;;0.90;;
9844;SDS011;4961;50.782;6.080;2022-07-01T00:14:37;0.90;;;0.90;;
9844;SDS011;4961;50.782;6.080;2022-07-01T00:17:05;1.07;;;0.97;;
9844;SDS011;4961;50.782;6.080;2022-07-01T00:19:33;1.53;;;0.90;;
9844;SDS011;4961;50.782;6.080;2022-07-01T00:22:04;1.83;;;0.80;;
9844;SDS011;4961;50.782;6.080;2022-07-01T00:24:33;1.57;;;1.00;;
9844;SDS011;4961;50.782;6.080;2022-07-01T00:27:01;2.30;;;0.90;;
9844;SDS011;4961;50.782;6.080;2022-07-01T00:29:30;2.07;;;0.87;;
9844;SDS011;4961;50.782;6.080;2022-07-01T00:31:59;1.00;;;1.00;;
9844;SDS011;4961;50.782;6.080;2022-07-01T00:34:27;1.10;;;1.00;;
9844;SDS011;4961;50.782;6.080;2022-07-01T00:36:56;1.93;;;0.90;;
9844;SDS011;4961;50.782;6.080;2022-07-01T00:39:25;1.70;;;1.10;;
9844;SDS011;4961;50.782;6.080;2022-07-01T00:41:57;0.80;;;0.80;;
9844;SDS011;4961;50.782;6.080;2022-07-01T00:44:27;2.60;;;1.00;;
9844;SDS011;4961;50.782;6.080;2022-07-01T00:46:56;1.60;;;1.00;;
9844;SDS011;4961;50.782;6.080;2022-07-01T00:49:28;0.87;;;0.87;;
9844;SDS011;4961;50.782;6.080;2022-07-01T00:51:57;2.60;;;1.10;;
9844;SDS011;4961;50.782;6.080;2022-07-01T00:54:26;1.23;;;1.07;;
9844;SDS011;4961;50.782;6.080;2022-07-01T00:56:55;1.10;;;0.97;;
9844;SDS011;4961;50.782;6.080;2022-07-01T00:59:24;1.13;;;1.03;;
9844;SDS011;4961;50.782;6.080;2022-07-01T01:01:52;2.57;;;1.10;;
9844;SDS011;4961;50.782;6.080;2022-07-01T01:04:21;1.33;;;1.10;;
9844;SDS011;4961;50.782;6.080;2022-07-01T01:06:49;1.53;;;1.43;;
9844;SDS011;4961;50.782;6.080;2022-07-01T01:09:17;1.43;;;0.93;;
9844;SDS011;4961;50.782;6.080;2022-07-01T01:11:47;2.03;;;1.30;;
9844;SDS011;4961;50.782;6.080;2022-07-01T01:14:16;1.00;;;1.00;;
9844;SDS011;4961;50.782;6.080;2022-07-01T01:16:44;1.47;;;1.00;;
9844;SDS011;4961;50.782;6.080;2022-07-01T01:19:12;3.77;;;1.20;;
9844;SDS011;4961;50.782;6.080;2022-07-01T01:21:43;2.00;;;1.00;;
9844;SDS011;4961;50.782;6.080;2022-07-01T01:24:11;2.63;;;1.27;;
9844;SDS011;4961;50.782;6.080;2022-07-01T01:26:39;2.83;;;1.50;;
9844;SDS011;4961;50.782;6.080;2022-07-01T01:29:07;2.40;;;1.00;;
9844;SDS011;4961;50.782;6.080;2022-07-01T01:31:35;3.73;;;1.20;;
9844;SDS011;4961;50.782;6.080;2022-07-01T01:34:03;1.83;;;1.23;;
9844;SDS011;4961;50.782;6.080;2022-07-01T01:36:32;2.00;;;1.57;;
9844;SDS011;4961;50.782;6.080;2022-07-01T01:39:01;1.30;;;1.20;;
9844;SDS011;4961;50.782;6.080;2022-07-01T01:41:33;2.30;;;1.30;;
9844;SDS011;4961;50.782;6.080;2022-07-01T01:44:01;1.77;;;1.50;;
9844;SDS011;4961;50.782;6.080;2022-07-01T01:46:29;1.53;;;1.43;;
9844;SDS011;4961;50.782;6.080;2022-07-01T01:48:58;1.93;;;1.10;;
9844;SDS011;4961;50.782;6.080;2022-07-01T01:51:26;4.07;;;1.50;;
9844;SDS011;4961;50.782;6.080;2022-07-01T01:53:55;1.33;;;1.23;;
9844;SDS011;4961;50.782;6.080;2022-07-01T01:56:25;2.33;;;1.77;;
9844;SDS011;4961;50.782;6.080;2022-07-01T01:58:53;1.50;;;1.40;;
9844;SDS011;4961;50.782;6.080;2022-07-01T02:01:21;2.83;;;1.60;;
9844;SDS011;4961;50.782;6.080;2022-07-01T02:03:50;1.73;;;1.57;;
9844;SDS011;4961;50.782;6.080;2022-07-01T02:06:20;1.97;;;1.40;;
9844;SDS011;4961;50.782;6.080;2022-07-01T02:08:49;2.30;;;1.60;;
9844;SDS011;4961;50.782;6.080;2022-07-01T02:11:17;2.07;;;1.57;;
9844;SDS011;4961;50.782;6.080;2022-07-01T02:13:48;2.60;;;1.70;;
9844;SDS011;4961;50.782;6.080;2022-07-01T02:16:20;3.13;;;1.80;;
9844;SDS011;4961;50.782;6.080;2022-07-01T02:18:48;1.80;;;1.70;;
9844;SDS011;4961;50.782;6.080;2022-07-01T02:21:16;2.57;;;2.13;;
9844;SDS011;4961;50.782;6.080;2022-07-01T02:23:44;2.57;;;1.70;;
9844;SDS011;4961;50.782;6.080;2022-07-01T02:26:12;2.00;;;1.90;;
9844;SDS011;4961;50.782;6.080;2022-07-01T02:28:40;2.63;;;2.00;;
9844;SDS011;4961;50.782;6.080;2022-07-01T02:31:10;1.97;;;1.30;;
9844;SDS011;4961;50.782;6.080;2022-07-01T02:33:39;2.17;;;1.70;;
9844;SDS011;4961;50.782;6.080;2022-07-01T02:36:07;3.23;;;1.40;;
9844;SDS011;4961;50.782;6.080;2022-07-01T02:38:36;3.07;;;1.27;;
9844;SDS011;4961;50.782;6.080;2022-07-01T02:41:04;3.90;;;1.60;;
9844;SDS011;4961;50.782;6.080;2022-07-01T02:43:32;1.50;;;1.23;;
9844;SDS011;4961;50.782;6.080;2022-07-01T02:46:00;3.80;;;1.10;;
9844;SDS011;4961;50.782;6.080;2022-07-01T02:48:29;1.67;;;0.90;;
9844;SDS011;4961;50.782;6.080;2022-07-01T02:50:57;1.73;;;1.40;;
9844;SDS011;4961;50.782;6.080;2022-07-01T02:53:27;2.63;;;1.40;;
9844;SDS011;4961;50.782;6.080;2022-07-01T02:55:55;4.73;;;1.30;;
9844;SDS011;4961;50.782;6.080;2022-07-01T02:58:24;2.43;;;1.50;;
9844;SDS011;4961;50.782;6.080;2022-07-01T03:00:52;3.13;;;1.57;;
9844;SDS011;4961;50.782;6.080;2022-07-01T03:03:21;2.20;;;1.37;;
9844;SDS011;4961;50.782;6.080;2022-07-01T03:05:50;1.53;;;1.40;;
9844;SDS011;4961;50.782;6.080;2022-07-01T03:08:18;2.83;;;1.50;;
9844;SDS011;4961;50.782;6.080;2022-07-01T03:10:46;1.57;;;1.17;;
9844;SDS011;4961;50.782;6.080;2022-07-01T03:13:14;1.43;;;1.20;;
9844;SDS011;4961;50.782;6.080;2022-07-01T03:15:42;3.30;;;1.50;;
9844;SDS011;4961;50.782;6.080;2022-07-01T03:18:11;3.27;;;1.00;;
9844;SDS011;4961;50.782;6.080;2022-07-01T03:20:39;1.77;;;1.10;;
9844;SDS011;4961;50.782;6.080;2022-07-01T03:23:09;2.93;;;1.63;;
9844;SDS011;4961;50.782;6.080;2022-07-01T03:25:37;1.10;;;1.00;;
9844;SDS011;4961;50.782;6.080;2022-07-01T03:28:05;2.07;;;1.20;;
9844;SDS011;4961;50.782;6.080;2022-07-01T03:30:33;1.50;;;1.13;;
9844;SDS011;4961;50.782;6.080;2022-07-01T03:33:01;3.13;;;1.30;;
9844;SDS011;4961;50.782;6.080;2022-07-01T03:35:29;1.70;;;1.10;;
9844;SDS011;4961;50.782;6.080;2022-07-01T03:38:06;1.93;;;1.50;;
9844;SDS011;4961;50.782;6.080;2022-07-01T03:40:36;1.23;;;1.13;;
9844;SDS011;4961;50.782;6.080;2022-07-01T03:43:04;1.30;;;1.20;;
9844;SDS011;4961;50.782;6.080;2022-07-01T03:45:33;2.13;;;1.47;;
9844;SDS011;4961;50.782;6.080;2022-07-01T03:48:01;1.60;;;1.50;;
9844;SDS011;4961;50.782;6.080;2022-07-01T03:50:29;3.20;;;1.40;;
9844;SDS011;4961;50.782;6.080;2022-07-01T03:52:57;1.80;;;1.03;;
9844;SDS011;4961;50.782;6.080;2022-07-01T03:55:44;7.07;;;1.20;;
9844;SDS011;4961;50.782;6.080;2022-07-01T03:58:13;2.73;;;1.40;;
9844;SDS011;4961;50.782;6.080;2022-07-01T04:00:41;1.40;;;1.10;;
9844;SDS011;4961;50.782;6.080;2022-07-01T04:03:09;2.93;;;1.80;;
9844;SDS011;4961;50.782;6.080;2022-07-01T04:05:37;1.27;;;1.17;;
9844;SDS011;4961;50.782;6.080;2022-07-01T04:08:07;1.10;;;1.00;;
9844;SDS011;4961;50.782;6.080;2022-07-01T04:10:38;2.43;;;1.40;;
9844;SDS011;4961;50.782;6.080;2022-07-01T04:13:09;1.60;;;1.10;;
9844;SDS011;4961;50.782;6.080;2022-07-01T04:15:56;2.67;;;1.07;;
9844;SDS011;4961;50.782;6.080;2022-07-01T04:18:26;1.87;;;1.20;;
9844;SDS011;4961;50.782;6.080;2022-07-01T04:20:55;2.33;;;1.17;;
9844;SDS011;4961;50.782;6.080;2022-07-01T04:23:41;1.90;;;1.20;;
9844;SDS011;4961;50.782;6.080;2022-07-01T04:26:09;1.27;;;1.00;;
9844;SDS011;4961;50.782;6.080;2022-07-01T04:28:59;2.73;;;0.90;;
9844;SDS011;4961;50.782;6.080;2022-07-01T04:31:27;2.13;;;1.30;;
9844;SDS011;4961;50.782;6.080;2022-07-01T04:33:56;1.03;;;0.97;;
9844;SDS011;4961;50.782;6.080;2022-07-01T04:36:24;1.00;;;1.00;;
9844;SDS011;4961;50.782;6.080;2022-07-01T04:38:53;2.80;;;1.07;;
9844;SDS011;4961;50.782;6.080;2022-07-01T04:41:21;1.90;;;1.10;;
9844;SDS011;4961;50.782;6.080;2022-07-01T04:44:08;3.50;;;1.13;;
9844;SDS011;4961;50.782;6.080;2022-07-01T04:46:36;0.97;;;0.80;;
9844;SDS011;4961;50.782;6.080;2022-07-01T04:49:04;1.13;;;1.10;;
9844;SDS011;4961;50.782;6.080;2022-07-01T04:51:33;1.47;;;1.07;;
9844;SDS011;4961;50.782;6.080;2022-07-01T04:54:01;1.73;;;0.97;;
9844;SDS011;4961;50.782;6.080;2022-07-01T04:56:30;1.17;;;1.00;;
9844;SDS011;4961;50.782;6.080;2022-07-01T04:58:59;3.27;;;1.13;;
9844;SDS011;4961;50.782;6.080;2022-07-01T05:01:28;1.20;;;1.10;;
9844;SDS011;4961;50.782;6.080;2022-07-01T05:03:57;1.67;;;1.37;;
9844;SDS011;4961;50.782;6.080;2022-07-01T05:06:25;1.57;;;1.30;;
9844;SDS011;4961;50.782;6.080;2022-07-01T05:08:54;2.60;;;1.10;;
9844;SDS011;4961;50.782;6.080;2022-07-01T05:11:22;4.03;;;1.20;;
9844;SDS011;4961;50.782;6.080;2022-07-01T05:13:50;2.20;;;1.30;;
9844;SDS011;4961;50.782;6.080;2022-07-01T05:16:19;2.63;;;1.40;;
9844;SDS011;4961;50.782;6.080;2022-07-01T05:18:48;2.07;;;1.43;;
9844;SDS011;4961;50.782;6.080;2022-07-01T05:21:34;1.60;;;1.40;;
9844;SDS011;4961;50.782;6.080;2022-07-01T05:24:19;2.20;;;1.20;;
9844;SDS011;4961;50.782;6.080;2022-07-01T05:26:48;2.43;;;1.40;;
9844;SDS011;4961;50.782;6.080;2022-07-01T05:29:17;1.50;;;0.90;;
9844;SDS011;4961;50.782;6.080;2022-07-01T05:31:45;2.20;;;1.00;;
9844;SDS011;4961;50.782;6.080;2022-07-01T05:34:15;2.03;;;1.00;;
9844;SDS011;4961;50.782;6.080;2022-07-01T05:36:43;3.87;;;1.10;;
9844;SDS011;4961;50.782;6.080;2022-07-01T05:39:11;3.03;;;1.10;;
9844;SDS011;4961;50.782;6.080;2022-07-01T05:41:39;0.93;;;0.90;;
9844;SDS011;4961;50.782;6.080;2022-07-01T05:44:08;3.83;;;1.13;;
9844;SDS011;4961;50.782;6.080;2022-07-01T05:46:36;1.00;;;0.90;;
9844;SDS011;4961;50.782;6.080;2022-07-01T05:49:05;1.57;;;0.97;;
9844;SDS011;4961;50.782;6.080;2022-07-01T05:51:35;1.87;;;0.97;;
9844;SDS011;4961;50.782;6.080;2022-07-01T05:54:03;8.73;;;1.07;;
9844;SDS011;4961;50.782;6.080;2022-07-01T05:56:31;1.20;;;1.10;;
9844;SDS011;4961;50.782;6.080;2022-07-01T05:58:59;1.53;;;1.03;;
9844;SDS011;4961;50.782;6.080;2022-07-01T06:01:28;2.57;;;1.00;;
9844;SDS011;4961;50.782;6.080;2022-07-01T06:03:56;1.93;;;1.60;;
9844;SDS011;4961;50.782;6.080;2022-07-01T06:06:24;1.73;;;1.00;;
9844;SDS011;4961;50.782;6.080;2022-07-01T06:08:54;1.90;;;0.97;;
9844;SDS011;4961;50.782;6.080;2022-07-01T06:11:22;2.47;;;1.13;;
9844;SDS011;4961;50.782;6.080;2022-07-01T06:13:50;1.20;;;1.10;;
9844;SDS011;4961;50.782;6.080;2022-07-01T06:16:18;2.40;;;1.40;;
9844;SDS011;4961;50.782;6.080;2022-07-01T06:18:47;4.13;;;1.30;;
9844;SDS011;4961;50.782;6.080;2022-07-01T06:21:15;1.03;;;1.00;;
9844;SDS011;4961;50.782;6.080;2022-07-01T06:23:43;1.77;;;1.57;;
9844;SDS011;4961;50.782;6.080;2022-07-01T06:26:13;1.83;;;1.73;;
9844;SDS011;4961;50.782;6.080;2022-07-01T06:28:41;5.10;;;1.73;;
9844;SDS011;4961;50.782;6.080;2022-07-01T06:31:09;2.00;;;1.60;;
9844;SDS011;4961;50.782;6.080;2022-07-01T06:33:38;1.63;;;1.53;;
9844;SDS011;4961;50.782;6.080;2022-07-01T06:36:06;2.47;;;2.00;;
9844;SDS011;4961;50.782;6.080;2022-07-01T06:38:34;3.10;;;2.47;;
9844;SDS011;4961;50.782;6.080;2022-07-01T06:41:03;2.73;;;2.20;;
9844;SDS011;4961;50.782;6.080;2022-07-01T06:43:50;2.40;;;2.13;;
9844;SDS011;4961;50.782;6.080;2022-07-01T06:46:18;2.50;;;1.80;;
9844;SDS011;4961;50.782;6.080;2022-07-01T06:48:47;4.93;;;2.30;;
9844;SDS011;4961;50.782;6.080;2022-07-01T06:51:16;3.67;;;2.13;;
9844;SDS011;4961;50.782;6.080;2022-07-01T06:53:44;2.77;;;1.77;;
9844;SDS011;4961;50.782;6.080;2022-07-01T06:56:13;2.83;;;1.97;;
9844;SDS011;4961;50.782;6.080;2022-07-01T06:58:41;4.00;;;1.60;;
9844;SDS011;4961;50.782;6.080;2022-07-01T07:01:11;6.00;;;2.40;;
9844;SDS011;4961;50.782;6.080;2022-07-01T07:03:39;3.17;;;1.70;;
9844;SDS011;4961;50.782;6.080;2022-07-01T07:06:08;3.80;;;2.40;;
9844;SDS011;4961;50.782;6.080;2022-07-01T07:08:37;3.10;;;1.57;;
9844;SDS011;4961;50.782;6.080;2022-07-01T07:11:07;3.90;;;1.43;;
9844;SDS011;4961;50.782;6.080;2022-07-01T07:13:36;3.27;;;1.50;;
9844;SDS011;4961;50.782;6.080;2022-07-01T07:16:05;3.00;;;1.67;;
9844;SDS011;4961;50.782;6.080;2022-07-01T07:18:34;5.07;;;1.50;;
9844;SDS011;4961;50.782;6.080;2022-07-01T07:21:02;3.03;;;1.57;;
9844;SDS011;4961;50.782;6.080;2022-07-01T07:23:31;2.33;;;1.20;;
9844;SDS011;4961;50.782;6.080;2022-07-01T07:25:59;1.63;;;1.40;;
9844;SDS011;4961;50.782;6.080;2022-07-01T07:28:27;3.53;;;1.20;;
9844;SDS011;4961;50.782;6.080;2022-07-01T07:30:55;4.37;;;1.63;;
9844;SDS011;4961;50.782;6.080;2022-07-01T07:33:24;2.10;;;1.00;;
9844;SDS011;4961;50.782;6.080;2022-07-01T07:35:54;3.30;;;1.40;;
9844;SDS011;4961;50.782;6.080;2022-07-01T07:38:22;1.23;;;1.07;;
9844;SDS011;4961;50.782;6.080;2022-07-01T07:40:50;3.10;;;1.33;;
9844;SDS011;4961;50.782;6.080;2022-07-01T07:43:19;2.90;;;1.10;;
9844;SDS011;4961;50.782;6.080;2022-07-01T07:45:48;3.63;;;0.90;;
9844;SDS011;4961;50.782;6.080;2022-07-01T07:48:25;1.83;;;1.33;;
9844;SDS011;4961;50.782;6.080;2022-07-01T07:51:24;1.97;;;0.90;;
9844;SDS011;4961;50.782;6.080;2022-07-01T07:54:02;2.27;;;1.40;;
9844;SDS011;4961;50.782;6.080;2022-07-01T07:56:30;3.90;;;1.20;;
9844;SDS011;4961;50.782;6.080;2022-07-01T07:58:59;2.60;;;1.00;;
9844;SDS011;4961;50.782;6.080;2022-07-01T08:01:27;1.57;;;0.70;;
9844;SDS011;4961;50.782;6.080;2022-07-01T08:03:55;3.10;;;0.87;;
9844;SDS011;4961;50.782;6.080;2022-07-01T08:06:25;1.80;;;0.80;;
9844;SDS011;4961;50.782;6.080;2022-07-01T08:08:55;2.43;;;0.80;;
9844;SDS011;4961;50.782;6.080;2022-07-01T08:11:23;0.73;;;0.73;;
9844;SDS011;4961;50.782;6.080;2022-07-01T08:13:51;1.67;;;0.50;;
9844;SDS011;4961;50.782;6.080;2022-07-01T08:16:20;2.97;;;1.23;;
9844;SDS011;4961;50.782;6.080;2022-07-01T08:18:48;2.10;;;1.07;;
9844;SDS011;4961;50.782;6.080;2022-07-01T08:21:16;2.97;;;0.90;;
9844;SDS011;4961;50.782;6.080;2022-07-01T08:23:49;2.90;;;0.73;;
9844;SDS011;4961;50.782;6.080;2022-07-01T08:26:29;2.17;;;0.80;;
9844;SDS011;4961;50.782;6.080;2022-07-01T08:29:04;1.67;;;0.80;;
9844;SDS011;4961;50.782;6.080;2022-07-01T08:31:32;2.67;;;0.80;;
9844;SDS011;4961;50.782;6.080;2022-07-01T08:34:01;1.83;;;0.77;;
9844;SDS011;4961;50.782;6.080;2022-07-01T08:36:29;1.70;;;0.90;;
9844;SDS011;4961;50.782;6.080;2022-07-01T08:38:59;1.20;;;1.10;;
9844;SDS011;4961;50.782;6.080;2022-07-01T08:41:27;1.20;;;0.90;;
9844;SDS011;4961;50.782;6.080;2022-07-01T08:43:55;1.00;;;0.90;;
9844;SDS011;4961;50.782;6.080;2022-07-01T08:46:25;2.67;;;0.60;;
9844;SDS011;4961;50.782;6.080;2022-07-01T08:48:53;1.23;;;0.77;;
9844;SDS011;4961;50.782;6.080;2022-07-01T08:51:22;1.63;;;0.90;;
9844;SDS011;4961;50.782;6.080;2022-07-01T08:53:50;3.20;;;0.93;;
9844;SDS011;4961;50.782;6.080;2022-07-01T08:56:20;1.00;;;0.80;;
9844;SDS011;4961;50.782;6.080;2022-07-01T08:59:05;1.53;;;0.90;;
9844;SDS011;4961;50.782;6.080;2022-07-01T09:01:34;0.83;;;0.70;;
9844;SDS011;4961;50.782;6.080;2022-07-01T09:04:12;3.27;;;0.70;;
9844;SDS011;4961;50.782;6.080;2022-07-01T09:06:43;0.70;;;0.70;;
9844;SDS011;4961;50.782;6.080;2022-07-01T09:09:13;2.50;;;0.80;;
9844;SDS011;4961;50.782;6.080;2022-07-01T09:11:49;3.17;;;0.90;;
9844;SDS011;4961;50.782;6.080;2022-07-01T09:14:23;1.77;;;1.00;;
9844;SDS011;4961;50.782;6.080;2022-07-01T09:16:55;1.30;;;0.77;;
9844;SDS011;4961;50.782;6.080;2022-07-01T09:19:25;3.00;;;0.90;;
9844;SDS011;4961;50.782;6.080;2022-07-01T09:21:55;1.97;;;1.00;;
9844;SDS011;4961;50.782;6.080;2022-07-01T09:24:27;0.70;;;0.63;;
9844;SDS011;4961;50.782;6.080;2022-07-01T09:26:59;2.50;;;0.70;;
9844;SDS011;4961;50.782;6.080;2022-07-01T09:29:30;1.07;;;0.70;;
9844;SDS011;4961;50.782;6.080;2022-07-01T09:31:59;1.17;;;0.80;;
9844;SDS011;4961;50.782;6.080;2022-07-01T09:34:31;0.73;;;0.70;;
9844;SDS011;4961;50.782;6.080;2022-07-01T09:37:01;4.63;;;0.80;;
9844;SDS011;4961;50.782;6.080;2022-07-01T09:39:32;0.97;;;0.50;;
9844;SDS011;4961;50.782;6.080;2022-07-01T09:42:11;1.00;;;0.60;;
9844;SDS011;4961;50.782;6.080;2022-07-01T09:44:53;1.50;;;0.60;;
9844;SDS011;4961;50.782;6.080;2022-07-01T09:47:29;2.37;;;0.60;;
9844;SDS011;4961;50.782;6.080;2022-07-01T09:49:58;1.37;;;0.47;;
9844;SDS011;4961;50.782;6.080;2022-07-01T09:52:27;2.17;;;0.53;;
9844;SDS011;4961;50.782;6.080;2022-07-01T09:55:03;0.40;;;0.40;;
9844;SDS011;4961;50.782;6.080;2022-07-01T09:57:33;0.63;;;0.50;;
9844;SDS011;4961;50.782;6.080;2022-07-01T10:00:03;0.80;;;0.50;;
9844;SDS011;4961;50.782;6.080;2022-07-01T10:02:33;1.93;;;0.57;;
9844;SDS011;4961;50.782;6.080;2022-07-01T10:05:05;1.60;;;0.83;;
9844;SDS011;4961;50.782;6.080;2022-07-01T10:07:42;1.83;;;0.63;;
9844;SDS011;4961;50.782;6.080;2022-07-01T10:10:23;4.17;;;0.77;;
9844;SDS011;4961;50.782;6.080;2022-07-01T10:13:11;0.43;;;0.30;;
9844;SDS011;4961;50.782;6.080;2022-07-01T10:15:41;0.67;;;0.30;;
9844;SDS011;4961;50.782;6.080;2022-07-01T10:18:21;1.77;;;0.43;;
9844;SDS011;4961;50.782;6.080;2022-07-01T10:20:49;1.27;;;0.40;;
9844;SDS011;4961;50.782;6.080;2022-07-01T10:23:19;0.40;;;0.40;;
9844;SDS011;4961;50.782;6.080;2022-07-01T10:25:49;1.83;;;0.53;;
9844;SDS011;4961;50.782;6.080;2022-07-01T10:28:20;0.57;;;0.40;;
9844;SDS011;4961;50.782;6.080;2022-07-01T10:30:55;3.03;;;0.50;;
9844;SDS011;4961;50.782;6.080;2022-07-01T10:33:33;3.63;;;0.40;;
9844;SDS011;4961;50.782;6.080;2022-07-01T10:36:26;1.90;;;0.93;;
9844;SDS011;4961;50.782;6.080;2022-07-01T10:39:14;4.63;;;0.60;;
9844;SDS011;4961;50.782;6.080;2022-07-01T10:41:54;0.97;;;0.33;;
9844;SDS011;4961;50.782;6.080;2022-07-01T10:47:38;0.80;;;0.40;;
9844;SDS011;4961;50.782;6.080;2022-07-01T10:50:09;1.87;;;0.60;;
9844;SDS011;4961;50.782;6.080;2022-07-01T10:52:44;0.63;;;0.63;;
9844;SDS011;4961;50.782;6.080;2022-07-01T10:58:25;1.37;;;0.40;;
9844;SDS011;4961;50.782;6.080;2022-07-01T11:01:03;0.80;;;0.40;;
9844;SDS011;4961;50.782;6.080;2022-07-01T11:03:35;1.53;;;0.40;;
9844;SDS011;4961;50.782;6.080;2022-07-01T11:06:06;0.70;;;0.37;;
9844;SDS011;4961;50.782;6.080;2022-07-01T11:08:35;0.47;;;0.30;;
9844;SDS011;4961;50.782;6.080;2022-07-01T11:11:04;2.20;;;0.80;;
9844;SDS011;4961;50.782;6.080;2022-07-01T11:13:32;2.07;;;0.60;;
9844;SDS011;4961;50.782;6.080;2022-07-01T11:16:02;2.57;;;0.63;;
9844;SDS011;4961;50.782;6.080;2022-07-01T11:18:32;1.30;;;0.30;;
9844;SDS011;4961;50.782;6.080;2022-07-01T11:21:05;4.30;;;1.00;;
9844;SDS011;4961;50.782;6.080;2022-07-01T11:23:35;1.40;;;0.57;;
9844;SDS011;4961;50.782;6.080;2022-07-01T11:26:07;0.60;;;0.40;;
9844;SDS011;4961;50.782;6.080;2022-07-01T11:28:50;1.57;;;0.50;;
9844;SDS011;4961;50.782;6.080;2022-07-01T11:31:31;0.57;;;0.40;;
9844;SDS011;4961;50.782;6.080;2022-07-01T11:34:01;0.80;;;0.40;;
9844;SDS011;4961;50.782;6.080;2022-07-01T11:36:32;4.13;;;0.53;;
9844;SDS011;4961;50.782;6.080;2022-07-01T11:39:16;1.20;;;0.40;;
9844;SDS011;4961;50.782;6.080;2022-07-01T11:41:54;0.90;;;0.20;;
9844;SDS011;4961;50.782;6.080;2022-07-01T11:44:30;0.63;;;0.27;;
9844;SDS011;4961;50.782;6.080;2022-07-01T11:46:59;0.43;;;0.20;;
9844;SDS011;4961;50.782;6.080;2022-07-01T11:49:28;1.50;;;0.40;;
9844;SDS011;4961;50.782;6.080;2022-07-01T11:51:59;1.27;;;0.37;;
9844;SDS011;4961;50.782;6.080;2022-07-01T11:54:28;1.83;;;0.30;;
9844;SDS011;4961;50.782;6.080;2022-07-01T11:57:07;0.73;;;0.37;;
9844;SDS011;4961;50.782;6.080;2022-07-01T11:59:36;1.73;;;0.30;;
9844;SDS011;4961;50.782;6.080;2022-07-01T12:02:07;0.43;;;0.30;;
9844;SDS011;4961;50.782;6.080;2022-07-01T12:04:37;1.60;;;0.50;;
9844;SDS011;4961;50.782;6.080;2022-07-01T12:07:08;1.27;;;0.40;;
9844;SDS011;4961;50.782;6.080;2022-07-01T12:09:38;0.40;;;0.20;;
9844;SDS011;4961;50.782;6.080;2022-07-01T12:12:14;0.77;;;0.37;;
9844;SDS011;4961;50.782;6.080;2022-07-01T12:14:49;1.73;;;0.40;;
9844;SDS011;4961;50.782;6.080;2022-07-01T12:17:19;0.87;;;0.40;;
9844;SDS011;4961;50.782;6.080;2022-07-01T12:19:49;0.53;;;0.30;;
9844;SDS011;4961;50.782;6.080;2022-07-01T12:22:21;0.40;;;0.30;;
9844;SDS011;4961;50.782;6.080;2022-07-01T12:24:51;2.10;;;0.30;;
9844;SDS011;4961;50.782;6.080;2022-07-01T12:27:22;1.40;;;0.93;;
9844;SDS011;4961;50.782;6.080;2022-07-01T12:29:52;3.60;;;0.80;;
9844;SDS011;4961;50.782;6.080;2022-07-01T12:32:22;1.27;;;0.80;;
9844;SDS011;4961;50.782;6.080;2022-07-01T12:34:53;0.70;;;0.30;;
9844;SDS011;4961;50.782;6.080;2022-07-01T12:37:28;1.23;;;0.40;;
9844;SDS011;4961;50.782;6.080;2022-07-01T12:39:58;1.53;;;1.10;;
9844;SDS011;4961;50.782;6.080;2022-07-01T12:42:28;0.53;;;0.40;;
9844;SDS011;4961;50.782;6.080;2022-07-01T12:44:58;0.63;;;0.37;;
9844;SDS011;4961;50.782;6.080;2022-07-01T12:47:28;2.30;;;0.67;;
9844;SDS011;4961;50.782;6.080;2022-07-01T12:50:09;2.03;;;0.60;;
9844;SDS011;4961;50.782;6.080;2022-07-01T12:52:44;2.77;;;0.60;;
9844;SDS011;4961;50.782;6.080;2022-07-01T12:55:23;3.33;;;1.00;;
9844;SDS011;4961;50.782;6.080;2022-07-01T12:57:53;2.30;;;0.70;;
9844;SDS011;4961;50.782;6.080;2022-07-01T13:00:22;1.20;;;0.60;;
9844;SDS011;4961;50.782;6.080;2022-07-01T13:02:52;1.63;;;0.40;;
9844;SDS011;4961;50.782;6.080;2022-07-01T13:05:22;0.57;;;0.40;;
9844;SDS011;4961;50.782;6.080;2022-07-01T13:07:52;1.00;;;0.50;;
9844;SDS011;4961;50.782;6.080;2022-07-01T13:10:20;3.53;;;0.43;;
9844;SDS011;4961;50.782;6.080;2022-07-01T13:12:48;1.50;;;0.50;;
9844;SDS011;4961;50.782;6.080;2022-07-01T13:15:18;0.90;;;0.50;;
9844;SDS011;4961;50.782;6.080;2022-07-01T13:17:47;0.97;;;0.40;;
9844;SDS011;4961;50.782;6.080;2022-07-01T13:20:16;1.13;;;0.50;;
9844;SDS011;4961;50.782;6.080;2022-07-01T13:22:45;0.90;;;0.70;;
9844;SDS011;4961;50.782;6.080;2022-07-01T13:25:15;1.00;;;0.60;;
9844;SDS011;4961;50.782;6.080;2022-07-01T13:27:43;1.60;;;0.80;;
9844;SDS011;4961;50.782;6.080;2022-07-01T13:30:12;1.17;;;0.30;;
9844;SDS011;4961;50.782;6.080;2022-07-01T13:32:41;0.70;;;0.43;;
9844;SDS011;4961;50.782;6.080;2022-07-01T13:35:10;1.30;;;1.20;;
9844;SDS011;4961;50.782;6.080;2022-07-01T13:37:39;0.80;;;0.30;;
9844;SDS011;4961;50.782;6.080;2022-07-01T13:40:08;2.60;;;1.30;;
9844;SDS011;4961;50.782;6.080;2022-07-01T13:42:38;1.73;;;0.80;;
9844;SDS011;4961;50.782;6.080;2022-07-01T13:45:07;0.63;;;0.37;;
9844;SDS011;4961;50.782;6.080;2022-07-01T13:47:37;0.50;;;0.30;;
9844;SDS011;4961;50.782;6.080;2022-07-01T13:50:05;2.47;;;0.63;;
9844;SDS011;4961;50.782;6.080;2022-07-01T13:52:34;2.17;;;0.33;;
9844;SDS011;4961;50.782;6.080;2022-07-01T13:55:03;1.07;;;0.30;;
9844;SDS011;4961;50.782;6.080;2022-07-01T13:57:32;0.60;;;0.50;;
9844;SDS011;4961;50.782;6.080;2022-07-01T14:00:02;0.50;;;0.40;;
9844;SDS011;4961;50.782;6.080;2022-07-01T14:02:31;0.30;;;0.20;;
9844;SDS011;4961;50.782;6.080;2022-07-01T14:04:59;2.07;;;0.37;;
9844;SDS011;4961;50.782;6.080;2022-07-01T14:07:27;0.70;;;0.30;;
9844;SDS011;4961;50.782;6.080;2022-07-01T14:09:56;0.70;;;0.30;;
9844;SDS011;4961;50.782;6.080;2022-07-01T14:12:24;2.80;;;0.30;;
9844;SDS011;4961;50.782;6.080;2022-07-01T14:14:54;0.43;;;0.33;;
9844;SDS011;4961;50.782;6.080;2022-07-01T14:17:24;0.53;;;0.30;;
9844;SDS011;4961;50.782;6.080;2022-07-01T14:19:53;0.30;;;0.30;;
9844;SDS011;4961;50.782;6.080;2022-07-01T14:22:24;2.03;;;0.90;;
9844;SDS011;4961;50.782;6.080;2022-07-01T14:24:52;0.70;;;0.50;;
9844;SDS011;4961;50.782;6.080;2022-07-01T14:27:21;4.50;;;1.80;;
9844;SDS011;4961;50.782;6.080;2022-07-01T14:29:50;0.30;;;0.30;;
9844;SDS011;4961;50.782;6.080;2022-07-01T14:32:22;3.70;;;0.50;;
9844;SDS011;4961;50.782;6.080;2022-07-01T14:34:54;1.77;;;0.30;;
9844;SDS011;4961;50.782;6.080;2022-07-01T14:37:23;0.37;;;0.33;;
9844;SDS011;4961;50.782;6.080;2022-07-01T14:39:51;1.03;;;0.40;;
9844;SDS011;4961;50.782;6.080;2022-07-01T14:42:23;0.60;;;0.40;;
9844;SDS011;4961;50.782;6.080;2022-07-01T14:44:51;1.20;;;0.30;;
9844;SDS011;4961;50.782;6.080;2022-07-01T14:47:20;0.60;;;0.30;;
9844;SDS011;4961;50.782;6.080;2022-07-01T14:49:50;1.77;;;0.90;;
9844;SDS011;4961;50.782;6.080;2022-07-01T14:52:20;1.23;;;0.67;;
9844;SDS011;4961;50.782;6.080;2022-07-01T14:54:49;1.60;;;0.40;;
9844;SDS011;4961;50.782;6.080;2022-07-01T14:57:18;0.70;;;0.40;;
9844;SDS011;4961;50.782;6.080;2022-07-01T14:59:46;0.87;;;0.30;;
9844;SDS011;4961;50.782;6.080;2022-07-01T15:02:14;1.13;;;0.30;;
9844;SDS011;4961;50.782;6.080;2022-07-01T15:04:43;0.50;;;0.20;;
9844;SDS011;4961;50.782;6.080;2022-07-01T15:07:14;1.83;;;1.00;;
9844;SDS011;4961;50.782;6.080;2022-07-01T15:09:42;0.50;;;0.20;;
9844;SDS011;4961;50.782;6.080;2022-07-01T15:12:10;0.67;;;0.23;;
9844;SDS011;4961;50.782;6.080;2022-07-01T15:14:39;0.40;;;0.37;;
9844;SDS011;4961;50.782;6.080;2022-07-01T15:17:08;1.43;;;0.60;;
9844;SDS011;4961;50.782;6.080;2022-07-01T15:19:37;0.70;;;0.37;;
9844;SDS011;4961;50.782;6.080;2022-07-01T15:22:06;1.97;;;0.30;;
9844;SDS011;4961;50.782;6.080;2022-07-01T15:24:37;0.93;;;0.33;;
9844;SDS011;4961;50.782;6.080;2022-07-01T15:27:07;2.40;;;0.50;;
9844;SDS011;4961;50.782;6.080;2022-07-01T15:29:38;1.10;;;0.40;;
9844;SDS011;4961;50.782;6.080;2022-07-01T15:32:06;1.67;;;0.30;;
9844;SDS011;4961;50.782;6.080;2022-07-01T15:34:35;0.30;;;0.30;;
9844;SDS011;4961;50.782;6.080;2022-07-01T15:37:04;1.40;;;1.00;;
9844;SDS011;4961;50.782;6.080;2022-07-01T15:39:32;0.40;;;0.40;;
9844;SDS011;4961;50.782;6.080;2022-07-01T15:42:02;3.33;;;2.00;;